createdAt,value
2023-05-17T00:01:18.317Z,18.80
2023-05-17T00:03:48.843Z,18.80
2023-05-17T00:06:17.952Z,18.80
2023-05-17T00:08:47.862Z,18.80
2023-05-17T00:11:17.377Z,18.80
2023-05-17T00:13:46.446Z,18.80
2023-05-17T00:16:15.420Z,18.80
2023-05-17T00:18:44.552Z,18.80
2023-05-17T00:21:15.058Z,18.80
2023-05-17T00:23:44.070Z,18.80
2023-05-17T00:26:13.973Z,18.80
2023-05-17T00:28:43.398Z,18.70
2023-05-17T00:31:12.216Z,18.80
2023-05-17T00:33:41.147Z,18.70
2023-05-17T00:36:10.539Z,18.70
2023-05-17T00:38:41.296Z,18.80
2023-05-17T00:41:10.680Z,18.80
2023-05-17T00:43:39.630Z,18.80
2023-05-17T00:46:08.534Z,18.80
2023-05-17T00:48:38.201Z,18.80
2023-05-17T00:51:07.730Z,18.80
2023-05-17T00:53:37.426Z,18.80
2023-05-17T00:56:08.772Z,18.80
2023-05-17T00:58:40.848Z,18.80
2023-05-17T01:01:10.086Z,18.80
2023-05-17T01:03:39.228Z,18.70
2023-05-17T01:06:08.486Z,18.80
2023-05-17T01:08:37.642Z,18.80
2023-05-17T01:11:21.596Z,18.80
2023-05-17T01:14:01.470Z,18.80
2023-05-17T01:16:37.100Z,18.80
2023-05-17T01:19:15.906Z,18.80
2023-05-17T01:21:58.978Z,18.80
2023-05-17T01:24:31.648Z,18.90
2023-05-17T01:27:03.761Z,18.90
2023-05-17T01:29:34.675Z,18.80
2023-05-17T01:32:06.515Z,18.90
2023-05-17T01:34:37.299Z,18.90
2023-05-17T01:37:06.661Z,18.90
2023-05-17T01:39:36.406Z,18.90
2023-05-17T01:42:17.049Z,18.80
2023-05-17T01:44:51.722Z,18.80
2023-05-17T01:47:36.221Z,18.80
2023-05-17T01:50:07.741Z,18.80
2023-05-17T01:52:47.028Z,18.80
2023-05-17T01:55:24.864Z,18.80
2023-05-17T01:57:58.246Z,18.80
2023-05-17T02:00:28.876Z,18.80
2023-05-17T02:02:59.847Z,18.90
2023-05-17T02:05:29.363Z,18.80
2023-05-17T02:07:58.567Z,18.80
2023-05-17T02:10:27.659Z,18.80
2023-05-17T02:13:00.134Z,18.80
2023-05-17T02:15:29.833Z,18.80
2023-05-17T02:17:59.185Z,18.80
2023-05-17T02:20:28.297Z,18.80
2023-05-17T02:22:57.371Z,18.80
2023-05-17T02:25:28.604Z,18.70
2023-05-17T02:27:59.173Z,18.70
2023-05-17T02:30:28.244Z,18.80
2023-05-17T02:32:57.394Z,18.70
2023-05-17T02:35:26.594Z,18.70
2023-05-17T02:37:55.653Z,18.80
2023-05-17T02:40:24.689Z,18.70
2023-05-17T02:42:53.705Z,18.70
2023-05-17T02:45:24.206Z,18.80
2023-05-17T02:47:53.297Z,18.70
2023-05-17T02:50:22.321Z,18.70
2023-05-17T02:52:51.278Z,18.70
2023-05-17T02:55:20.337Z,18.70
2023-05-17T02:57:49.258Z,18.80
2023-05-17T03:00:19.163Z,18.70
2023-05-17T03:02:49.829Z,18.70
2023-05-17T03:05:19.176Z,18.70
2023-05-17T03:07:53.496Z,18.70
2023-05-17T03:10:22.557Z,18.70
2023-05-17T03:12:51.660Z,19.20
2023-05-17T03:15:23.652Z,18.70
2023-05-17T03:17:54.245Z,18.70
2023-05-17T03:20:23.658Z,18.70
2023-05-17T03:22:52.979Z,18.70
2023-05-17T03:25:22.804Z,18.70
2023-05-17T03:27:52.461Z,18.60
2023-05-17T03:30:21.913Z,18.60
2023-05-17T03:32:51.344Z,18.60
2023-05-17T03:35:22.065Z,18.60
2023-05-17T03:37:54.807Z,18.60
2023-05-17T03:40:24.994Z,18.60
2023-05-17T03:42:54.416Z,18.70
2023-05-17T03:45:24.019Z,18.70
2023-05-17T03:47:53.062Z,18.70
2023-05-17T03:50:42.712Z,18.60
2023-05-17T03:53:12.468Z,18.60
2023-05-17T03:55:41.825Z,18.50
2023-05-17T03:58:10.885Z,18.50
2023-05-17T04:00:42.072Z,18.50
2023-05-17T04:03:30.181Z,18.50
2023-05-17T04:06:09.143Z,18.40
2023-05-17T04:08:40.273Z,18.40
2023-05-17T04:11:28.036Z,18.40
2023-05-17T04:13:58.419Z,18.40
2023-05-17T04:16:27.429Z,18.40
2023-05-17T04:18:57.298Z,18.40
2023-05-17T04:21:27.861Z,18.40
2023-05-17T04:23:58.411Z,18.40
2023-05-17T04:26:28.588Z,18.40
2023-05-17T04:28:57.865Z,18.40
2023-05-17T04:31:26.822Z,18.50
2023-05-17T04:33:56.661Z,18.50
2023-05-17T04:36:30.841Z,18.50
2023-05-17T04:39:00.326Z,18.50
2023-05-17T04:41:31.700Z,18.50
2023-05-17T04:44:00.938Z,18.50
2023-05-17T04:46:35.254Z,18.50
2023-05-17T04:49:04.724Z,18.50
2023-05-17T04:51:35.517Z,18.50
2023-05-17T04:54:07.235Z,18.50
2023-05-17T04:56:37.351Z,18.50
2023-05-17T04:59:10.366Z,18.50
2023-05-17T05:01:39.319Z,18.50
2023-05-17T05:04:08.299Z,18.60
2023-05-17T05:06:44.288Z,18.60
2023-05-17T05:09:13.715Z,18.60
2023-05-17T05:11:42.938Z,18.50
2023-05-17T05:14:11.956Z,18.50
2023-05-17T05:16:41.014Z,18.50
2023-05-17T05:19:10.671Z,18.50
2023-05-17T05:21:46.468Z,18.50
2023-05-17T05:24:16.930Z,18.60
2023-05-17T05:26:46.731Z,18.60
2023-05-17T05:29:16.822Z,18.60
2023-05-17T05:31:46.633Z,18.60
2023-05-17T05:34:16.586Z,18.60
2023-05-17T05:36:47.546Z,18.60
2023-05-17T05:39:18.270Z,18.60
2023-05-17T05:41:47.730Z,18.60
2023-05-17T05:44:16.804Z,18.60
2023-05-17T05:46:45.871Z,18.60
2023-05-17T05:49:15.750Z,18.60
2023-05-17T05:51:46.850Z,18.60
2023-05-17T05:54:34.583Z,18.60
2023-05-17T05:57:03.979Z,18.60
2023-05-17T05:59:33.127Z,18.60
2023-05-17T06:02:02.938Z,18.60
2023-05-17T06:04:44.013Z,18.60
2023-05-17T06:07:16.409Z,18.60
2023-05-17T06:09:45.435Z,18.60
2023-05-17T06:12:14.742Z,18.70
2023-05-17T06:14:43.833Z,18.60
2023-05-17T06:17:12.769Z,18.60
2023-05-17T06:19:41.723Z,18.60
2023-05-17T06:22:10.902Z,18.60
2023-05-17T06:24:41.337Z,18.60
2023-05-17T06:27:10.358Z,18.60
2023-05-17T06:29:39.410Z,18.60
2023-05-17T06:32:08.967Z,18.60
2023-05-17T06:34:37.958Z,18.50
2023-05-17T06:37:07.107Z,18.50
2023-05-17T06:39:36.230Z,18.50
2023-05-17T06:42:07.433Z,18.50
2023-05-17T06:44:45.360Z,18.50
2023-05-17T06:47:14.411Z,18.50
2023-05-17T06:49:43.332Z,18.50
2023-05-17T06:52:12.306Z,18.60
2023-05-17T06:54:41.262Z,18.60
2023-05-17T06:57:11.959Z,18.60
2023-05-17T06:59:41.050Z,18.60
2023-05-17T07:02:10.038Z,18.60
2023-05-17T07:04:38.946Z,18.70
2023-05-17T07:07:08.021Z,18.70
2023-05-17T07:09:37.008Z,18.70
2023-05-17T07:12:07.969Z,18.70
2023-05-17T07:14:38.392Z,18.80
2023-05-17T07:17:07.455Z,18.80
2023-05-17T07:19:36.485Z,18.80
2023-05-17T07:22:05.678Z,18.80
2023-05-17T07:24:36.035Z,18.90
2023-05-17T07:27:05.358Z,18.90
2023-05-17T07:29:34.343Z,18.90
2023-05-17T07:32:05.100Z,18.90
2023-05-17T07:34:34.253Z,18.90
2023-05-17T07:37:03.528Z,18.90
2023-05-17T07:39:32.532Z,18.80
2023-05-17T07:42:02.379Z,18.80
2023-05-17T07:44:51.609Z,18.80
2023-05-17T07:47:22.031Z,18.80
2023-05-17T07:49:51.324Z,18.80
2023-05-17T07:52:20.251Z,18.80
2023-05-17T07:54:49.206Z,18.80
2023-05-17T07:57:18.867Z,18.70
2023-05-17T07:59:47.856Z,18.70
2023-05-17T08:02:16.891Z,18.70
2023-05-17T08:04:49.710Z,18.70
2023-05-17T08:07:19.448Z,18.70
2023-05-17T08:09:48.422Z,18.70
2023-05-17T08:12:17.300Z,18.70
2023-05-17T08:14:46.412Z,18.60
2023-05-17T08:17:15.353Z,18.60
2023-05-17T08:19:44.311Z,18.60
2023-05-17T08:22:14.908Z,18.60
2023-05-17T08:24:45.166Z,18.60
2023-05-17T08:27:14.322Z,18.60
2023-05-17T08:29:43.196Z,18.70
2023-05-17T08:32:12.189Z,18.70
2023-05-17T08:34:41.189Z,18.70
2023-05-17T08:37:10.234Z,18.70
2023-05-17T08:39:40.862Z,18.70
2023-05-17T08:42:09.991Z,18.80
2023-05-17T08:44:39.697Z,18.80
2023-05-17T08:47:11.844Z,18.90
2023-05-17T08:49:42.354Z,19.00
2023-05-17T08:52:12.594Z,19.00
2023-05-17T08:54:47.740Z,19.10
2023-05-17T08:57:22.655Z,19.10
2023-05-17T08:59:53.584Z,19.20
2023-05-17T09:02:23.758Z,19.30
2023-05-17T09:04:55.808Z,19.30
2023-05-17T09:07:25.344Z,19.30
2023-05-17T09:09:56.142Z,19.30
2023-05-17T09:12:25.818Z,19.30
2023-05-17T09:14:54.961Z,19.30
2023-05-17T09:17:24.067Z,19.30
2023-05-17T09:19:53.241Z,19.30
2023-05-17T09:22:22.481Z,19.30
2023-05-17T09:24:51.694Z,19.30
2023-05-17T09:27:21.968Z,19.40
2023-05-17T09:29:50.993Z,19.40
2023-05-17T09:32:21.205Z,19.40
2023-05-17T09:34:51.377Z,19.50
2023-05-17T09:37:21.510Z,19.60
2023-05-17T09:39:50.804Z,19.70
2023-05-17T09:42:19.796Z,19.70
2023-05-17T09:44:53.629Z,19.80
2023-05-17T09:47:26.675Z,19.80
2023-05-17T09:49:57.558Z,19.90
2023-05-17T09:52:27.192Z,20.00
2023-05-17T09:54:57.867Z,20.10
2023-05-17T09:57:28.316Z,20.20
2023-05-17T09:59:59.760Z,20.30
2023-05-17T10:02:30.410Z,20.30
2023-05-17T10:04:59.813Z,20.40
2023-05-17T10:07:29.390Z,20.50
2023-05-17T10:09:59.102Z,20.60
2023-05-17T10:12:30.891Z,20.70
2023-05-17T10:15:02.907Z,20.70
2023-05-17T10:17:32.648Z,20.80
2023-05-17T10:20:02.449Z,20.90
2023-05-17T10:22:51.889Z,21.00
2023-05-17T10:25:21.380Z,21.10
2023-05-17T10:28:09.350Z,21.20
2023-05-17T10:30:40.151Z,21.40
2023-05-17T10:33:09.644Z,21.50
2023-05-17T10:35:41.208Z,21.70
2023-05-17T10:38:10.262Z,21.70
2023-05-17T10:40:40.402Z,21.80
2023-05-17T10:43:11.519Z,21.80
2023-05-17T10:45:44.034Z,21.90
2023-05-17T10:48:14.123Z,22.00
2023-05-17T10:50:54.434Z,22.10
2023-05-17T10:53:33.747Z,22.20
2023-05-17T10:56:06.377Z,21.60
2023-05-17T10:58:37.797Z,22.40
2023-05-17T11:01:10.342Z,22.40
2023-05-17T11:03:40.959Z,22.50
2023-05-17T11:06:24.751Z,22.50
2023-05-17T11:09:18.786Z,22.50
2023-05-17T11:12:08.844Z,22.50
2023-05-17T11:14:55.672Z,22.50
2023-05-17T11:17:27.894Z,22.50
2023-05-17T11:20:06.571Z,22.50
2023-05-17T11:22:40.613Z,22.50
2023-05-17T11:25:12.183Z,22.60
2023-05-17T11:27:46.359Z,22.70
2023-05-17T11:30:20.825Z,22.70
2023-05-17T11:32:52.460Z,22.70
2023-05-17T11:35:25.663Z,22.80
2023-05-17T11:38:18.286Z,22.90
2023-05-17T11:40:48.469Z,23.00
2023-05-17T11:43:18.840Z,23.10
2023-05-17T11:45:52.934Z,23.20
2023-05-17T11:48:26.671Z,23.30
2023-05-17T11:50:58.911Z,23.50
2023-05-17T11:53:32.310Z,23.70
2023-05-17T11:56:05.551Z,23.90
2023-05-17T11:58:36.246Z,24.10
2023-05-17T12:01:06.205Z,24.20
2023-05-17T12:03:37.292Z,24.30
2023-05-17T12:06:09.825Z,24.40
2023-05-17T12:08:40.364Z,24.40
2023-05-17T12:11:12.585Z,24.40
2023-05-17T12:13:42.983Z,24.40
2023-05-17T12:16:17.590Z,24.40
2023-05-17T12:18:51.719Z,24.30
2023-05-17T12:21:21.682Z,24.30
2023-05-17T12:23:53.958Z,24.30
2023-05-17T12:26:24.164Z,24.30
2023-05-17T12:28:57.833Z,24.30
2023-05-17T12:31:30.931Z,24.30
2023-05-17T12:34:02.873Z,24.20
2023-05-17T12:36:33.699Z,24.20
2023-05-17T12:39:04.804Z,24.10
2023-05-17T12:41:34.520Z,24.10
2023-05-17T12:44:14.590Z,24.10
2023-05-17T12:46:45.061Z,24.20
2023-05-17T12:49:15.600Z,24.20
2023-05-17T12:51:46.447Z,24.20
2023-05-17T12:54:27.345Z,24.20
2023-05-17T12:56:57.824Z,24.20
2023-05-17T12:59:29.204Z,24.20
2023-05-17T13:02:00.985Z,24.30
2023-05-17T13:04:38.014Z,24.20
2023-05-17T13:07:16.902Z,24.60
2023-05-17T13:09:49.657Z,24.30
2023-05-17T13:12:22.575Z,24.30
2023-05-17T13:14:53.519Z,24.30
2023-05-17T13:17:28.388Z,24.30
2023-05-17T13:19:58.917Z,24.30
2023-05-17T13:22:28.181Z,24.30
2023-05-17T13:24:57.226Z,24.30
2023-05-17T13:27:26.113Z,24.20
2023-05-17T13:29:55.094Z,24.20
2023-05-17T13:32:24.092Z,24.30
2023-05-17T13:34:53.135Z,24.30
2023-05-17T13:37:23.816Z,24.30
2023-05-17T13:39:54.989Z,24.30
2023-05-17T13:42:42.614Z,24.30
2023-05-17T13:45:13.825Z,24.40
2023-05-17T13:47:43.124Z,24.40
2023-05-17T13:50:18.167Z,24.40
2023-05-17T13:52:48.553Z,24.50
2023-05-17T13:55:17.787Z,24.50
2023-05-17T13:57:47.283Z,24.60
2023-05-17T14:00:17.323Z,24.70
2023-05-17T14:03:05.244Z,24.70
2023-05-17T14:05:36.861Z,24.80
2023-05-17T14:08:25.861Z,24.90
2023-05-17T14:10:55.154Z,24.90
2023-05-17T14:13:24.729Z,24.90
2023-05-17T14:15:53.705Z,25.00
2023-05-17T14:18:23.046Z,25.00
2023-05-17T14:20:53.380Z,25.00
2023-05-17T14:23:22.451Z,25.00
2023-05-17T14:25:52.876Z,25.00
2023-05-17T14:28:21.993Z,25.00
2023-05-17T14:30:52.107Z,25.00
2023-05-17T14:33:21.343Z,25.00
2023-05-17T14:35:50.357Z,25.00
2023-05-17T14:38:20.688Z,25.00
2023-05-17T14:40:49.850Z,25.00
2023-05-17T14:43:21.296Z,25.10
2023-05-17T14:45:50.343Z,25.10
2023-05-17T14:48:19.498Z,25.10
2023-05-17T14:50:48.534Z,25.10
2023-05-17T14:53:17.548Z,25.10
2023-05-17T14:55:46.770Z,25.10
2023-05-17T14:58:15.789Z,25.10
2023-05-17T15:00:50.646Z,25.10
2023-05-17T15:03:22.277Z,25.10
2023-05-17T15:05:56.686Z,25.10
2023-05-17T15:08:26.080Z,25.00
2023-05-17T15:10:55.580Z,25.00
2023-05-17T15:13:24.928Z,25.00
2023-05-17T15:15:56.731Z,25.00
2023-05-17T15:18:29.671Z,25.00
2023-05-17T15:20:59.114Z,25.00
2023-05-17T15:23:28.018Z,24.90
2023-05-17T15:25:57.120Z,24.90
2023-05-17T15:28:29.189Z,24.90
2023-05-17T15:31:03.839Z,24.90
2023-05-17T15:33:33.537Z,24.90
2023-05-17T15:36:02.649Z,24.80
2023-05-17T15:38:31.749Z,24.80
2023-05-17T15:41:05.296Z,24.80
2023-05-17T15:43:36.307Z,24.80
2023-05-17T15:46:07.431Z,24.70
2023-05-17T15:48:37.366Z,24.70
2023-05-17T15:51:08.260Z,24.60
2023-05-17T15:53:37.306Z,24.50
2023-05-17T15:56:06.749Z,24.50
2023-05-17T15:58:35.865Z,24.40
2023-05-17T16:01:07.460Z,24.30
2023-05-17T16:03:36.676Z,24.20
2023-05-17T16:06:06.654Z,24.20
2023-05-17T16:08:35.568Z,24.10
2023-05-17T16:11:04.955Z,24.00
2023-05-17T16:13:33.909Z,24.00
2023-05-17T16:16:03.196Z,23.90
2023-05-17T16:18:33.822Z,23.80
2023-05-17T16:21:05.511Z,23.80
2023-05-17T16:23:35.006Z,23.70
2023-05-17T16:26:03.925Z,23.70
2023-05-17T16:28:34.825Z,23.60
2023-05-17T16:31:06.074Z,23.60
2023-05-17T16:33:36.722Z,23.50
2023-05-17T16:36:06.209Z,23.50
2023-05-17T16:38:36.643Z,23.40
2023-05-17T16:41:05.661Z,23.40
2023-05-17T16:43:35.248Z,23.40
2023-05-17T16:46:04.596Z,23.30
2023-05-17T16:48:33.717Z,23.30
2023-05-17T16:51:04.639Z,23.20
2023-05-17T16:53:35.477Z,23.20
2023-05-17T16:56:23.322Z,23.10
2023-05-17T16:58:52.607Z,23.10
2023-05-17T17:01:21.843Z,23.10
2023-05-17T17:03:50.996Z,23.00
2023-05-17T17:06:21.570Z,23.00
2023-05-17T17:08:50.600Z,22.90
2023-05-17T17:11:22.049Z,22.90
2023-05-17T17:13:51.803Z,22.80
2023-05-17T17:16:21.592Z,22.80
2023-05-17T17:18:50.777Z,22.70
2023-05-17T17:21:21.220Z,22.60
2023-05-17T17:23:50.554Z,22.50
2023-05-17T17:26:19.879Z,22.50
2023-05-17T17:28:48.984Z,22.40
2023-05-17T17:31:18.891Z,22.30
2023-05-17T17:33:48.033Z,22.30
2023-05-17T17:36:16.949Z,22.20
2023-05-17T17:38:47.380Z,22.10
2023-05-17T17:41:16.513Z,22.00
2023-05-17T17:43:47.692Z,21.90
2023-05-17T17:46:16.962Z,21.90
2023-05-17T17:48:45.934Z,21.80
2023-05-17T17:51:14.872Z,21.70
2023-05-17T17:53:43.787Z,21.70
2023-05-17T17:56:14.240Z,21.60
2023-05-17T17:59:03.972Z,21.60
2023-05-17T18:01:38.855Z,21.50
2023-05-17T18:04:08.362Z,21.50
2023-05-17T18:06:37.387Z,21.40
2023-05-17T18:09:06.421Z,21.40
2023-05-17T18:11:37.085Z,21.30
2023-05-17T18:14:06.524Z,21.30
2023-05-17T18:16:35.571Z,21.20
2023-05-17T18:19:04.704Z,21.10
2023-05-17T18:21:33.841Z,21.10
2023-05-17T18:24:03.390Z,21.00
2023-05-17T18:26:32.947Z,21.00
2023-05-17T18:29:04.311Z,20.90
2023-05-17T18:31:33.448Z,20.90
2023-05-17T18:34:02.415Z,20.90
2023-05-17T18:36:31.528Z,20.80
2023-05-17T18:39:01.157Z,20.80
2023-05-17T18:41:30.144Z,20.70
2023-05-17T18:44:02.069Z,20.70
2023-05-17T18:46:51.196Z,20.60
2023-05-17T18:49:21.526Z,20.60
2023-05-17T18:51:51.013Z,20.60
2023-05-17T18:54:38.915Z,20.50
2023-05-17T18:57:11.587Z,20.50
2023-05-17T18:59:40.889Z,20.40
2023-05-17T19:02:29.813Z,20.40
2023-05-17T19:04:59.025Z,20.30
2023-05-17T19:07:28.699Z,20.30
2023-05-17T19:09:57.789Z,20.30
2023-05-17T19:12:26.860Z,20.20
2023-05-17T19:14:55.926Z,20.20
2023-05-17T19:17:25.188Z,20.10
2023-05-17T19:19:57.244Z,20.00
2023-05-17T19:22:44.940Z,19.90
2023-05-17T19:25:15.970Z,19.80
2023-05-17T19:27:45.485Z,19.80
2023-05-17T19:30:18.462Z,19.70
2023-05-17T19:32:47.632Z,19.60
2023-05-17T19:35:18.117Z,19.60
2023-05-17T19:37:47.014Z,19.50
2023-05-17T19:40:19.043Z,19.50
2023-05-17T19:42:48.605Z,19.40
2023-05-17T19:45:18.354Z,19.40
2023-05-17T19:47:47.317Z,19.40
2023-05-17T19:50:17.892Z,19.40
2023-05-17T19:52:47.217Z,19.40
2023-05-17T19:55:22.267Z,19.40
2023-05-17T19:57:51.479Z,19.40
2023-05-17T20:00:21.178Z,19.40
2023-05-17T20:02:50.162Z,19.30
2023-05-17T20:05:20.926Z,19.30
2023-05-17T20:07:50.141Z,19.20
2023-05-17T20:10:19.059Z,19.10
2023-05-17T20:12:48.456Z,19.10
2023-05-17T20:15:17.764Z,19.00
2023-05-17T20:17:46.920Z,19.00
2023-05-17T20:20:16.674Z,18.90
2023-05-17T20:22:47.672Z,18.90
2023-05-17T20:25:16.804Z,18.80
2023-05-17T20:27:46.156Z,18.80
2023-05-17T20:30:15.365Z,18.70
2023-05-17T20:32:44.391Z,18.70
2023-05-17T20:35:13.576Z,18.60
2023-05-17T20:37:42.649Z,18.50
2023-05-17T20:40:13.883Z,18.50
2023-05-17T20:42:43.254Z,18.50
2023-05-17T20:45:14.662Z,18.40
2023-05-17T20:47:44.108Z,18.40
2023-05-17T20:50:14.387Z,18.30
2023-05-17T20:52:43.427Z,18.60
2023-05-17T20:55:14.106Z,18.20
2023-05-17T20:57:43.404Z,18.20
2023-05-17T21:00:17.085Z,18.20
2023-05-17T21:02:46.850Z,18.10
2023-05-17T21:05:16.094Z,18.10
2023-05-17T21:07:46.917Z,18.10
2023-05-17T21:10:18.133Z,18.00
2023-05-17T21:12:47.087Z,18.00
2023-05-17T21:15:19.705Z,18.00
2023-05-17T21:17:48.815Z,17.90
2023-05-17T21:20:18.072Z,17.90
2023-05-17T21:22:47.097Z,17.90
2023-05-17T21:25:17.578Z,17.90
2023-05-17T21:27:46.584Z,17.90
2023-05-17T21:30:15.582Z,17.90
2023-05-17T21:32:44.625Z,17.90
2023-05-17T21:35:13.778Z,17.90
2023-05-17T21:37:42.706Z,17.90
2023-05-17T21:40:12.608Z,17.80
2023-05-17T21:42:43.512Z,17.80
2023-05-17T21:45:13.233Z,17.80
2023-05-17T21:47:42.418Z,17.80
2023-05-17T21:50:12.776Z,17.80
2023-05-17T21:52:42.159Z,17.70
2023-05-17T21:55:11.442Z,17.70
2023-05-17T21:57:49.384Z,17.70
2023-05-17T22:00:20.617Z,17.70
2023-05-17T22:02:49.923Z,17.70
2023-05-17T22:05:19.185Z,17.70
2023-05-17T22:07:48.819Z,17.70
2023-05-17T22:10:18.231Z,17.70
2023-05-17T22:12:54.369Z,17.80
2023-05-17T22:15:23.848Z,17.70
2023-05-17T22:17:53.190Z,17.70
2023-05-17T22:20:24.110Z,17.70
2023-05-17T22:22:53.156Z,17.70
2023-05-17T22:25:22.314Z,17.70
2023-05-17T22:27:52.824Z,17.80
2023-05-17T22:30:21.922Z,17.70
2023-05-17T22:32:52.157Z,17.70
2023-05-17T22:35:21.382Z,17.70
2023-05-17T22:37:50.339Z,17.70
2023-05-17T22:40:19.594Z,17.70
2023-05-17T22:42:48.686Z,17.60
2023-05-17T22:45:19.220Z,17.60
2023-05-17T22:47:48.322Z,17.60
2023-05-17T22:50:20.867Z,17.60
2023-05-17T22:52:50.924Z,17.60
2023-05-17T22:55:20.093Z,17.60
2023-05-17T22:57:49.036Z,17.60
2023-05-17T23:00:20.781Z,17.50
2023-05-17T23:02:49.921Z,17.50
2023-05-17T23:05:18.884Z,17.40
2023-05-17T23:07:48.108Z,17.40
2023-05-17T23:10:17.241Z,17.30
2023-05-17T23:12:46.245Z,17.30
2023-05-17T23:15:16.719Z,17.20
2023-05-17T23:17:47.567Z,17.20
2023-05-17T23:20:16.827Z,17.10
2023-05-17T23:22:47.820Z,17.10
2023-05-17T23:25:17.176Z,17.10
2023-05-17T23:27:46.073Z,17.10
2023-05-17T23:30:15.435Z,17.00
2023-05-17T23:32:46.945Z,17.00
2023-05-17T23:35:17.550Z,17.00
2023-05-17T23:37:46.602Z,17.00
2023-05-17T23:40:16.827Z,16.90
2023-05-17T23:42:46.341Z,16.90
2023-05-17T23:45:15.357Z,17.00
2023-05-17T23:47:44.646Z,17.00
2023-05-17T23:50:13.735Z,17.00
2023-05-17T23:52:44.169Z,17.00
2023-05-17T23:55:13.168Z,17.00
2023-05-17T23:57:42.656Z,17.00
